Weather at Dupuis Airport

Public forecast

Using degrees Fahrenheit for public forecast. Weather courtesy of forecast.io.

Closest aviation weather report (METAR) to Dupuis Airport

Closest report is Lafayette Regional Airport, 7.1 nm (13.1 km) SSW. Retrieved 2020/10/26 08:53 UTC (42 minutes ago):

KLFT 260853Z AUTO 02004KT 10SM BKN050 16/15 A2998 RMK AO2 SLP153 T01610150 57003

Closest aviation forecast (TAF) to Dupuis Airport

Closest forecast is Lafayette Regional Airport, 7.1 nm (13.1 km) SSW. Retrieved 2020/10/26 06:22 UTC (3 hours ago):

TAF KLFT 260520Z 2606/2706 02005KT P6SM SKC FM260700 04004KT P6SM SCT015 TEMPO 2609/2613 4SM BR BKN007 FM261800 09008KT P6SM FEW025 SCT250 FM270000 04004KT P6SM BKN250